sensor_id;sensor_type;location;lat;lon;timestamp;pressure;altitude;pressure_sealevel;temperature;humidity
74631;BME280;63138;55.082;38.804;2023-06-10T00:00:04;100210.22;;;12.15;66.17
74631;BME280;63138;55.082;38.804;2023-06-10T00:02:40;100211.94;;;12.16;66.25
74631;BME280;63138;55.082;38.804;2023-06-10T00:05:07;100215.69;;;12.15;66.23
74631;BME280;63138;55.082;38.804;2023-06-10T00:07:34;100209.75;;;12.12;65.59
74631;BME280;63138;55.082;38.804;2023-06-10T00:10:07;100216.22;;;12.11;65.19
74631;BME280;63138;55.082;38.804;2023-06-10T00:12:33;100205.88;;;12.06;64.77
74631;BME280;63138;55.082;38.804;2023-06-10T00:15:04;100209.47;;;12.07;64.19
74631;BME280;63138;55.082;38.804;2023-06-10T00:17:30;100204.06;;;11.98;63.72
74631;BME280;63138;55.082;38.804;2023-06-10T00:19:56;100204.22;;;11.97;63.18
74631;BME280;63138;55.082;38.804;2023-06-10T00:22:23;100211.72;;;11.95;63.50
74631;BME280;63138;55.082;38.804;2023-06-10T00:24:50;100203.22;;;11.90;64.21
74631;BME280;63138;55.082;38.804;2023-06-10T00:27:16;100213.44;;;11.88;63.72
74631;BME280;63138;55.082;38.804;2023-06-10T00:29:43;100202.06;;;11.84;63.13
74631;BME280;63138;55.082;38.804;2023-06-10T00:32:09;100199.91;;;11.79;63.29
74631;BME280;63138;55.082;38.804;2023-06-10T00:34:36;100191.94;;;11.70;63.09
74631;BME280;63138;55.082;38.804;2023-06-10T00:37:02;100202.97;;;11.76;63.63
74631;BME280;63138;55.082;38.804;2023-06-10T00:39:28;100200.25;;;11.76;63.60
74631;BME280;63138;55.082;38.804;2023-06-10T00:41:55;100198.22;;;11.70;63.21
74631;BME280;63138;55.082;38.804;2023-06-10T00:44:22;100203.50;;;11.72;63.45
74631;BME280;63138;55.082;38.804;2023-06-10T00:47:07;100205.88;;;11.66;63.92
74631;BME280;63138;55.082;38.804;2023-06-10T00:49:34;100212.03;;;11.69;63.90
74631;BME280;63138;55.082;38.804;2023-06-10T00:52:02;100221.03;;;11.69;63.51
74631;BME280;63138;55.082;38.804;2023-06-10T00:54:29;100226.25;;;11.79;63.37
74631;BME280;63138;55.082;38.804;2023-06-10T00:56:55;100219.91;;;11.86;63.07
74631;BME280;63138;55.082;38.804;2023-06-10T00:59:23;100223.13;;;11.90;62.90
74631;BME280;63138;55.082;38.804;2023-06-10T01:01:51;100229.56;;;11.97;62.07
74631;BME280;63138;55.082;38.804;2023-06-10T01:04:17;100226.31;;;12.02;62.08
74631;BME280;63138;55.082;38.804;2023-06-10T01:06:56;100225.66;;;12.00;61.52
74631;BME280;63138;55.082;38.804;2023-06-10T01:12:35;100232.00;;;11.84;61.48
74631;BME280;63138;55.082;38.804;2023-06-10T01:15:05;100230.69;;;11.72;61.71
74631;BME280;63138;55.082;38.804;2023-06-10T01:17:31;100231.06;;;11.69;62.01
74631;BME280;63138;55.082;38.804;2023-06-10T01:19:57;100229.38;;;11.67;61.75
74631;BME280;63138;55.082;38.804;2023-06-10T01:22:25;100232.31;;;11.58;61.60
74631;BME280;63138;55.082;38.804;2023-06-10T01:24:55;100237.88;;;11.64;61.87
74631;BME280;63138;55.082;38.804;2023-06-10T01:27:26;100235.31;;;11.63;61.66
74631;BME280;63138;55.082;38.804;2023-06-10T01:30:02;100248.91;;;11.63;61.69
74631;BME280;63138;55.082;38.804;2023-06-10T01:33:25;100238.75;;;11.57;61.05
74631;BME280;63138;55.082;38.804;2023-06-10T01:36:40;100252.19;;;11.58;61.39
74631;BME280;63138;55.082;38.804;2023-06-10T01:40:00;100247.59;;;11.59;61.07
74631;BME280;63138;55.082;38.804;2023-06-10T01:42:29;100240.81;;;11.55;60.78
74631;BME280;63138;55.082;38.804;2023-06-10T01:44:56;100253.69;;;11.61;60.55
74631;BME280;63138;55.082;38.804;2023-06-10T01:47:24;100258.78;;;11.72;60.22
74631;BME280;63138;55.082;38.804;2023-06-10T01:49:50;100260.59;;;12.19;59.06
74631;BME280;63138;55.082;38.804;2023-06-10T01:52:35;100270.16;;;12.38;58.51
74631;BME280;63138;55.082;38.804;2023-06-10T01:55:01;100264.72;;;12.61;57.60
74631;BME280;63138;55.082;38.804;2023-06-10T01:57:29;100262.25;;;12.52;57.57
74631;BME280;63138;55.082;38.804;2023-06-10T01:59:55;100267.56;;;12.45;57.63
74631;BME280;63138;55.082;38.804;2023-06-10T02:02:21;100278.16;;;12.40;57.83
74631;BME280;63138;55.082;38.804;2023-06-10T02:04:47;100276.16;;;12.34;57.37
74631;BME280;63138;55.082;38.804;2023-06-10T02:07:13;100281.31;;;12.75;56.12
74631;BME280;63138;55.082;38.804;2023-06-10T02:09:39;100281.97;;;13.15;55.52
74631;BME280;63138;55.082;38.804;2023-06-10T02:12:05;100284.41;;;13.10;55.35
74631;BME280;63138;55.082;38.804;2023-06-10T02:14:34;100277.09;;;12.87;55.99
74631;BME280;63138;55.082;38.804;2023-06-10T02:17:01;100276.06;;;13.26;54.80
74631;BME280;63138;55.082;38.804;2023-06-10T02:19:27;100283.25;;;13.87;53.64
74631;BME280;63138;55.082;38.804;2023-06-10T02:21:53;100285.44;;;14.49;51.74
74631;BME280;63138;55.082;38.804;2023-06-10T02:24:20;100301.19;;;14.62;51.06
74631;BME280;63138;55.082;38.804;2023-06-10T02:26:50;100311.31;;;14.32;51.66
74631;BME280;63138;55.082;38.804;2023-06-10T02:29:17;100315.69;;;14.63;50.66
74631;BME280;63138;55.082;38.804;2023-06-10T02:31:44;100322.91;;;14.70;50.54
74631;BME280;63138;55.082;38.804;2023-06-10T02:34:10;100317.28;;;15.22;49.19
74631;BME280;63138;55.082;38.804;2023-06-10T02:36:36;100310.22;;;14.84;49.67
74631;BME280;63138;55.082;38.804;2023-06-10T02:39:03;100314.78;;;14.41;50.97
74631;BME280;63138;55.082;38.804;2023-06-10T02:41:30;100311.38;;;14.02;52.09
74631;BME280;63138;55.082;38.804;2023-06-10T02:43:56;100317.59;;;13.66;52.81
74631;BME280;63138;55.082;38.804;2023-06-10T02:46:23;100322.47;;;13.41;53.34
74631;BME280;63138;55.082;38.804;2023-06-10T02:48:49;100323.59;;;13.47;53.70
74631;BME280;63138;55.082;38.804;2023-06-10T02:51:20;100336.69;;;13.51;53.82
74631;BME280;63138;55.082;38.804;2023-06-10T02:53:49;100333.78;;;13.53;53.45
74631;BME280;63138;55.082;38.804;2023-06-10T02:56:18;100337.44;;;13.45;53.70
74631;BME280;63138;55.082;38.804;2023-06-10T02:58:45;100323.25;;;13.80;52.81
74631;BME280;63138;55.082;38.804;2023-06-10T03:01:15;100328.25;;;14.42;51.38
74631;BME280;63138;55.082;38.804;2023-06-10T03:03:55;100332.66;;;15.01;50.03
74631;BME280;63138;55.082;38.804;2023-06-10T03:06:22;100342.34;;;14.61;50.75
74631;BME280;63138;55.082;38.804;2023-06-10T03:08:50;100323.63;;;14.06;51.58
74631;BME280;63138;55.082;38.804;2023-06-10T03:11:18;100339.53;;;13.88;52.53
74631;BME280;63138;55.082;38.804;2023-06-10T03:13:45;100327.84;;;13.64;52.55
74631;BME280;63138;55.082;38.804;2023-06-10T03:16:36;100324.94;;;13.51;52.84
74631;BME280;63138;55.082;38.804;2023-06-10T03:19:08;100325.59;;;13.38;53.27
74631;BME280;63138;55.082;38.804;2023-06-10T03:21:35;100320.97;;;13.15;54.03
74631;BME280;63138;55.082;38.804;2023-06-10T03:24:04;100319.75;;;13.18;54.57
74631;BME280;63138;55.082;38.804;2023-06-10T03:26:32;100319.19;;;13.08;54.83
74631;BME280;63138;55.082;38.804;2023-06-10T03:28:58;100322.94;;;13.07;55.12
74631;BME280;63138;55.082;38.804;2023-06-10T03:31:25;100320.94;;;13.00;55.29
74631;BME280;63138;55.082;38.804;2023-06-10T03:33:52;100328.38;;;13.07;54.94
74631;BME280;63138;55.082;38.804;2023-06-10T03:36:18;100322.22;;;12.90;55.22
74631;BME280;63138;55.082;38.804;2023-06-10T03:38:47;100318.59;;;12.97;55.50
74631;BME280;63138;55.082;38.804;2023-06-10T03:41:13;100326.88;;;13.04;55.22
74631;BME280;63138;55.082;38.804;2023-06-10T03:43:41;100340.03;;;13.00;55.56
74631;BME280;63138;55.082;38.804;2023-06-10T03:46:08;100352.91;;;13.07;55.79
74631;BME280;63138;55.082;38.804;2023-06-10T03:48:33;100346.19;;;12.94;56.31
74631;BME280;63138;55.082;38.804;2023-06-10T03:51:00;100333.13;;;12.90;56.08
74631;BME280;63138;55.082;38.804;2023-06-10T03:53:25;100341.00;;;12.85;56.22
74631;BME280;63138;55.082;38.804;2023-06-10T03:55:51;100323.69;;;12.77;56.32
74631;BME280;63138;55.082;38.804;2023-06-10T03:58:22;100335.91;;;12.81;56.63
74631;BME280;63138;55.082;38.804;2023-06-10T04:00:48;100335.59;;;12.76;56.67
74631;BME280;63138;55.082;38.804;2023-06-10T04:03:14;100344.16;;;12.73;56.83
74631;BME280;63138;55.082;38.804;2023-06-10T04:05:44;100356.50;;;12.84;56.80
74631;BME280;63138;55.082;38.804;2023-06-10T04:08:10;100349.31;;;12.91;56.36
74631;BME280;63138;55.082;38.804;2023-06-10T04:10:36;100350.69;;;12.87;56.52
74631;BME280;63138;55.082;38.804;2023-06-10T04:13:02;100332.88;;;12.76;56.87
74631;BME280;63138;55.082;38.804;2023-06-10T04:15:33;100353.13;;;12.82;56.47
74631;BME280;63138;55.082;38.804;2023-06-10T04:18:04;100352.50;;;12.72;57.02
74631;BME280;63138;55.082;38.804;2023-06-10T04:20:31;100360.09;;;13.31;55.54
74631;BME280;63138;55.082;38.804;2023-06-10T04:22:57;100356.38;;;13.76;53.78
74631;BME280;63138;55.082;38.804;2023-06-10T04:25:23;100364.28;;;14.67;51.29
74631;BME280;63138;55.082;38.804;2023-06-10T04:27:50;100365.34;;;15.59;49.28
74631;BME280;63138;55.082;38.804;2023-06-10T04:30:16;100358.03;;;16.43;46.87
74631;BME280;63138;55.082;38.804;2023-06-10T04:32:43;100369.13;;;16.76;45.75
74631;BME280;63138;55.082;38.804;2023-06-10T04:35:15;100352.09;;;17.21;44.91
74631;BME280;63138;55.082;38.804;2023-06-10T04:37:41;100365.00;;;17.41;44.31
74631;BME280;63138;55.082;38.804;2023-06-10T04:40:09;100358.00;;;17.11;44.44
74631;BME280;63138;55.082;38.804;2023-06-10T04:42:39;100364.84;;;16.67;45.59
74631;BME280;63138;55.082;38.804;2023-06-10T04:45:06;100362.66;;;17.17;44.41
74631;BME280;63138;55.082;38.804;2023-06-10T04:47:33;100373.41;;;17.92;43.53
74631;BME280;63138;55.082;38.804;2023-06-10T04:50:01;100380.50;;;18.33;42.15
74631;BME280;63138;55.082;38.804;2023-06-10T04:52:31;100378.91;;;17.79;42.63
74631;BME280;63138;55.082;38.804;2023-06-10T04:54:59;100373.81;;;18.03;42.95
74631;BME280;63138;55.082;38.804;2023-06-10T04:57:25;100367.97;;;18.44;41.82
74631;BME280;63138;55.082;38.804;2023-06-10T04:59:52;100381.22;;;18.54;41.35
74631;BME280;63138;55.082;38.804;2023-06-10T05:02:19;100380.16;;;18.10;41.92
74631;BME280;63138;55.082;38.804;2023-06-10T05:04:45;100380.22;;;18.48;41.48
74631;BME280;63138;55.082;38.804;2023-06-10T05:07:29;100383.84;;;19.19;39.51
74631;BME280;63138;55.082;38.804;2023-06-10T05:09:55;100391.50;;;19.42;39.24
74631;BME280;63138;55.082;38.804;2023-06-10T05:12:21;100395.53;;;20.71;37.09
74631;BME280;63138;55.082;38.804;2023-06-10T05:14:47;100396.81;;;20.68;36.29
74631;BME280;63138;55.082;38.804;2023-06-10T05:17:13;100387.00;;;20.35;36.33
74631;BME280;63138;55.082;38.804;2023-06-10T05:19:41;100373.91;;;20.12;36.56
74631;BME280;63138;55.082;38.804;2023-06-10T05:22:09;100397.75;;;20.62;35.92
74631;BME280;63138;55.082;38.804;2023-06-10T05:24:36;100391.13;;;21.24;34.36
74631;BME280;63138;55.082;38.804;2023-06-10T05:27:01;100408.88;;;21.58;33.54
74631;BME280;63138;55.082;38.804;2023-06-10T05:29:28;100399.44;;;21.24;33.81
74631;BME280;63138;55.082;38.804;2023-06-10T05:31:54;100390.75;;;21.62;33.26
74631;BME280;63138;55.082;38.804;2023-06-10T05:34:22;100398.00;;;21.33;32.84
74631;BME280;63138;55.082;38.804;2023-06-10T05:36:48;100394.06;;;20.98;33.47
74631;BME280;63138;55.082;38.804;2023-06-10T05:39:15;100399.72;;;21.04;33.27
74631;BME280;63138;55.082;38.804;2023-06-10T05:41:41;100402.41;;;20.80;33.79
74631;BME280;63138;55.082;38.804;2023-06-10T05:44:06;100393.44;;;21.27;32.95
74631;BME280;63138;55.082;38.804;2023-06-10T05:46:57;100395.94;;;21.70;32.92
74631;BME280;63138;55.082;38.804;2023-06-10T05:49:23;100389.31;;;21.17;33.52
74631;BME280;63138;55.082;38.804;2023-06-10T05:51:50;100393.63;;;21.13;33.53
74631;BME280;63138;55.082;38.804;2023-06-10T05:54:18;100396.66;;;21.24;33.45
74631;BME280;63138;55.082;38.804;2023-06-10T05:56:44;100397.94;;;22.10;31.62
74631;BME280;63138;55.082;38.804;2023-06-10T05:59:10;100398.06;;;22.39;31.11
74631;BME280;63138;55.082;38.804;2023-06-10T06:01:36;100387.88;;;21.81;31.44
74631;BME280;63138;55.082;38.804;2023-06-10T06:04:02;100397.16;;;21.32;31.93
74631;BME280;63138;55.082;38.804;2023-06-10T06:06:28;100398.69;;;21.94;31.39
74631;BME280;63138;55.082;38.804;2023-06-10T06:08:54;100416.72;;;21.61;30.74
74631;BME280;63138;55.082;38.804;2023-06-10T06:11:20;100403.75;;;21.73;30.84
74631;BME280;63138;55.082;38.804;2023-06-10T06:13:46;100400.47;;;21.53;31.18
74631;BME280;63138;55.082;38.804;2023-06-10T06:16:14;100402.53;;;21.57;31.64
74631;BME280;63138;55.082;38.804;2023-06-10T06:18:41;100399.28;;;21.96;31.27
74631;BME280;63138;55.082;38.804;2023-06-10T06:21:07;100405.88;;;22.42;30.39
74631;BME280;63138;55.082;38.804;2023-06-10T06:23:33;100420.50;;;22.95;30.06
74631;BME280;63138;55.082;38.804;2023-06-10T06:26:18;100414.91;;;22.78;29.41
74631;BME280;63138;55.082;38.804;2023-06-10T06:29:02;100418.63;;;22.84;29.35
74631;BME280;63138;55.082;38.804;2023-06-10T06:31:28;100413.91;;;22.84;29.55
74631;BME280;63138;55.082;38.804;2023-06-10T06:33:54;100414.50;;;23.27;29.31
74631;BME280;63138;55.082;38.804;2023-06-10T06:36:20;100418.47;;;23.48;28.66
74631;BME280;63138;55.082;38.804;2023-06-10T06:38:46;100432.13;;;23.38;28.31
74631;BME280;63138;55.082;38.804;2023-06-10T06:41:12;100427.84;;;23.30;28.62
74631;BME280;63138;55.082;38.804;2023-06-10T06:43:39;100422.06;;;22.62;28.83
74631;BME280;63138;55.082;38.804;2023-06-10T06:46:23;100419.91;;;23.05;28.42
74631;BME280;63138;55.082;38.804;2023-06-10T06:48:49;100419.25;;;23.15;28.30
74631;BME280;63138;55.082;38.804;2023-06-10T06:51:34;100421.06;;;22.80;28.25
74631;BME280;63138;55.082;38.804;2023-06-10T06:54:01;100434.03;;;22.39;29.08
74631;BME280;63138;55.082;38.804;2023-06-10T06:56:45;100423.78;;;21.69;29.58
74631;BME280;63138;55.082;38.804;2023-06-10T06:59:11;100435.66;;;21.46;29.43
74631;BME280;63138;55.082;38.804;2023-06-10T07:01:39;100431.88;;;21.94;28.64
74631;BME280;63138;55.082;38.804;2023-06-10T07:04:05;100431.38;;;22.32;28.34
74631;BME280;63138;55.082;38.804;2023-06-10T07:06:31;100426.81;;;21.91;29.40
74631;BME280;63138;55.082;38.804;2023-06-10T07:08:57;100418.41;;;22.09;29.28
74631;BME280;63138;55.082;38.804;2023-06-10T07:11:23;100435.72;;;22.40;28.83
74631;BME280;63138;55.082;38.804;2023-06-10T07:13:49;100433.38;;;22.61;28.22
74631;BME280;63138;55.082;38.804;2023-06-10T07:16:16;100444.19;;;23.03;27.50
74631;BME280;63138;55.082;38.804;2023-06-10T07:18:43;100443.97;;;22.52;28.16
74631;BME280;63138;55.082;38.804;2023-06-10T07:21:09;100441.53;;;23.37;27.29
74631;BME280;63138;55.082;38.804;2023-06-10T07:23:37;100442.31;;;22.39;27.34
74631;BME280;63138;55.082;38.804;2023-06-10T07:26:03;100443.59;;;21.54;28.98
74631;BME280;63138;55.082;38.804;2023-06-10T07:28:29;100444.38;;;22.20;27.35
74631;BME280;63138;55.082;38.804;2023-06-10T07:30:55;100453.88;;;22.36;27.50
74631;BME280;63138;55.082;38.804;2023-06-10T07:33:20;100456.16;;;22.39;27.93
74631;BME280;63138;55.082;38.804;2023-06-10T07:35:47;100443.78;;;22.82;28.02
74631;BME280;63138;55.082;38.804;2023-06-10T07:38:12;100447.84;;;21.80;29.06
74631;BME280;63138;55.082;38.804;2023-06-10T07:40:40;100451.38;;;20.48;30.38
74631;BME280;63138;55.082;38.804;2023-06-10T07:43:06;100440.31;;;20.29;30.60
74631;BME280;63138;55.082;38.804;2023-06-10T07:45:32;100435.03;;;19.84;30.96
74631;BME280;63138;55.082;38.804;2023-06-10T07:47:58;100458.75;;;19.60;30.25
74631;BME280;63138;55.082;38.804;2023-06-10T07:50:24;100466.00;;;19.54;30.74
74631;BME280;63138;55.082;38.804;2023-06-10T07:52:50;100451.91;;;19.37;31.54
74631;BME280;63138;55.082;38.804;2023-06-10T07:55:16;100458.16;;;20.45;28.89
74631;BME280;63138;55.082;38.804;2023-06-10T07:57:42;100460.72;;;20.65;30.07
74631;BME280;63138;55.082;38.804;2023-06-10T08:00:08;100453.81;;;20.56;29.74
74631;BME280;63138;55.082;38.804;2023-06-10T08:02:39;100469.69;;;19.73;31.12
74631;BME280;63138;55.082;38.804;2023-06-10T08:05:06;100464.22;;;20.17;30.24
74631;BME280;63138;55.082;38.804;2023-06-10T08:07:31;100465.59;;;20.26;28.91
74631;BME280;63138;55.082;38.804;2023-06-10T08:09:57;100482.78;;;20.03;28.11
74631;BME280;63138;55.082;38.804;2023-06-10T08:12:23;100475.91;;;20.12;28.87
74631;BME280;63138;55.082;38.804;2023-06-10T08:14:49;100472.06;;;20.38;28.54
74631;BME280;63138;55.082;38.804;2023-06-10T08:17:15;100471.06;;;20.70;28.93
74631;BME280;63138;55.082;38.804;2023-06-10T08:19:42;100481.22;;;19.89;30.23
74631;BME280;63138;55.082;38.804;2023-06-10T08:22:08;100488.41;;;19.26;30.27
74631;BME280;63138;55.082;38.804;2023-06-10T08:24:33;100479.03;;;18.95;31.02
74631;BME280;63138;55.082;38.804;2023-06-10T08:27:00;100472.44;;;19.41;30.96
74631;BME280;63138;55.082;38.804;2023-06-10T08:29:25;100493.59;;;19.79;30.88
74631;BME280;63138;55.082;38.804;2023-06-10T08:31:52;100484.59;;;19.59;30.51
74631;BME280;63138;55.082;38.804;2023-06-10T08:34:17;100485.03;;;18.65;32.21
74631;BME280;63138;55.082;38.804;2023-06-10T08:36:44;100495.88;;;18.60;33.52
74631;BME280;63138;55.082;38.804;2023-06-10T08:39:11;100489.09;;;19.21;32.69
74631;BME280;63138;55.082;38.804;2023-06-10T08:41:41;100496.75;;;19.83;31.63
74631;BME280;63138;55.082;38.804;2023-06-10T08:44:12;100496.25;;;20.11;31.65
74631;BME280;63138;55.082;38.804;2023-06-10T08:46:45;100489.13;;;20.47;30.16
74631;BME280;63138;55.082;38.804;2023-06-10T08:49:17;100465.28;;;20.34;30.31
74631;BME280;63138;55.082;38.804;2023-06-10T08:51:45;100484.53;;;20.41;29.11
74631;BME280;63138;55.082;38.804;2023-06-10T08:54:20;100471.50;;;20.30;30.33
74631;BME280;63138;55.082;38.804;2023-06-10T08:56:49;100484.31;;;19.67;31.17
74631;BME280;63138;55.082;38.804;2023-06-10T08:59:18;100480.16;;;19.58;30.56
74631;BME280;63138;55.082;38.804;2023-06-10T09:01:46;100481.09;;;20.02;29.59
74631;BME280;63138;55.082;38.804;2023-06-10T09:04:13;100473.16;;;20.12;29.47
74631;BME280;63138;55.082;38.804;2023-06-10T09:06:40;100474.34;;;19.98;29.17
74631;BME280;63138;55.082;38.804;2023-06-10T09:09:07;100466.59;;;20.13;28.76
74631;BME280;63138;55.082;38.804;2023-06-10T09:11:33;100434.75;;;19.67;27.78
74631;BME280;63138;55.082;38.804;2023-06-10T09:13:59;100479.41;;;19.44;27.61
74631;BME280;63138;55.082;38.804;2023-06-10T09:16:25;100484.25;;;19.80;28.57
74631;BME280;63138;55.082;38.804;2023-06-10T09:18:51;100478.41;;;19.95;29.07
74631;BME280;63138;55.082;38.804;2023-06-10T09:21:22;100479.25;;;19.96;30.24
74631;BME280;63138;55.082;38.804;2023-06-10T09:23:49;100476.22;;;19.08;30.22
74631;BME280;63138;55.082;38.804;2023-06-10T09:26:15;100474.47;;;19.21;30.01
74631;BME280;63138;55.082;38.804;2023-06-10T09:28:49;100484.63;;;18.68;32.03
74631;BME280;63138;55.082;38.804;2023-06-10T09:31:17;100477.56;;;18.21;31.79
74631;BME280;63138;55.082;38.804;2023-06-10T09:33:45;100495.00;;;18.60;32.16
74631;BME280;63138;55.082;38.804;2023-06-10T09:36:11;100493.94;;;19.19;31.08
74631;BME280;63138;55.082;38.804;2023-06-10T09:38:38;100495.75;;;19.39;30.67
74631;BME280;63138;55.082;38.804;2023-06-10T09:41:06;100492.50;;;19.48;29.75
74631;BME280;63138;55.082;38.804;2023-06-10T09:43:40;100486.97;;;20.31;28.78
74631;BME280;63138;55.082;38.804;2023-06-10T09:46:30;100495.56;;;20.41;28.21
74631;BME280;63138;55.082;38.804;2023-06-10T09:48:57;100472.28;;;19.29;30.46
74631;BME280;63138;55.082;38.804;2023-06-10T09:51:24;100459.72;;;18.57;31.61
74631;BME280;63138;55.082;38.804;2023-06-10T09:53:53;100505.13;;;18.86;30.99
74631;BME280;63138;55.082;38.804;2023-06-10T09:56:20;100495.94;;;18.40;30.14
74631;BME280;63138;55.082;38.804;2023-06-10T09:58:46;100497.19;;;18.38;30.50
74631;BME280;63138;55.082;38.804;2023-06-10T10:01:14;100486.69;;;18.93;30.52
74631;BME280;63138;55.082;38.804;2023-06-10T10:03:47;100489.25;;;19.26;29.98
74631;BME280;63138;55.082;38.804;2023-06-10T10:06:18;100484.72;;;19.71;29.06
74631;BME280;63138;55.082;38.804;2023-06-10T10:08:46;100483.81;;;19.83;29.52
74631;BME280;63138;55.082;38.804;2023-06-10T10:11:17;100487.84;;;19.49;29.62
74631;BME280;63138;55.082;38.804;2023-06-10T10:14:03;100481.22;;;19.25;30.63
74631;BME280;63138;55.082;38.804;2023-06-10T10:16:35;100496.72;;;18.47;32.32
74631;BME280;63138;55.082;38.804;2023-06-10T10:19:08;100490.88;;;18.24;33.33
74631;BME280;63138;55.082;38.804;2023-06-10T10:21:41;100484.97;;;18.00;33.22
74631;BME280;63138;55.082;38.804;2023-06-10T10:24:16;100490.91;;;17.97;32.19
74631;BME280;63138;55.082;38.804;2023-06-10T10:26:45;100498.06;;;17.65;32.56
74631;BME280;63138;55.082;38.804;2023-06-10T10:29:24;100511.56;;;17.73;32.20
74631;BME280;63138;55.082;38.804;2023-06-10T10:31:54;100501.63;;;17.45;32.02
74631;BME280;63138;55.082;38.804;2023-06-10T10:34:34;100490.47;;;18.00;31.73
74631;BME280;63138;55.082;38.804;2023-06-10T10:37:01;100480.13;;;17.95;33.03
74631;BME280;63138;55.082;38.804;2023-06-10T10:39:29;100500.50;;;17.26;33.51
74631;BME280;63138;55.082;38.804;2023-06-10T10:41:55;100494.31;;;16.97;34.54
74631;BME280;63138;55.082;38.804;2023-06-10T10:44:23;100498.78;;;17.12;33.83
74631;BME280;63138;55.082;38.804;2023-06-10T10:46:50;100513.16;;;17.20;34.32
74631;BME280;63138;55.082;38.804;2023-06-10T10:49:17;100489.66;;;17.86;32.48
74631;BME280;63138;55.082;38.804;2023-06-10T10:52:03;100505.91;;;18.08;32.56
74631;BME280;63138;55.082;38.804;2023-06-10T10:54:35;100495.31;;;17.78;33.88
74631;BME280;63138;55.082;38.804;2023-06-10T10:57:22;100505.03;;;17.74;32.98
74631;BME280;63138;55.082;38.804;2023-06-10T11:02:43;100496.34;;;18.37;30.64
74631;BME280;63138;55.082;38.804;2023-06-10T11:05:13;100495.41;;;18.77;30.42
74631;BME280;63138;55.082;38.804;2023-06-10T11:07:40;100500.75;;;19.17;29.53
74631;BME280;63138;55.082;38.804;2023-06-10T11:10:11;100501.81;;;18.57;30.92
74631;BME280;63138;55.082;38.804;2023-06-10T11:12:50;100496.31;;;18.44;31.41
74631;BME280;63138;55.082;38.804;2023-06-10T11:15:22;100491.31;;;17.87;31.85
74631;BME280;63138;55.082;38.804;2023-06-10T11:18:08;100497.00;;;17.66;31.60
74631;BME280;63138;55.082;38.804;2023-06-10T11:26:16;100508.22;;;17.77;30.43
74631;BME280;63138;55.082;38.804;2023-06-10T11:31:21;100525.63;;;17.30;30.37
74631;BME280;63138;55.082;38.804;2023-06-10T11:33:55;100526.13;;;17.53;30.74
74631;BME280;63138;55.082;38.804;2023-06-10T11:36:22;100515.22;;;17.93;30.18
74631;BME280;63138;55.082;38.804;2023-06-10T11:38:50;100512.25;;;18.02;29.87
74631;BME280;63138;55.082;38.804;2023-06-10T11:41:18;100507.81;;;18.21;29.54
74631;BME280;63138;55.082;38.804;2023-06-10T11:43:46;100514.56;;;18.31;30.08
74631;BME280;63138;55.082;38.804;2023-06-10T11:46:15;100498.84;;;18.52;29.18
74631;BME280;63138;55.082;38.804;2023-06-10T11:48:57;100505.03;;;18.27;29.25
74631;BME280;63138;55.082;38.804;2023-06-10T11:51:30;100509.28;;;18.37;28.83
74631;BME280;63138;55.082;38.804;2023-06-10T11:53:56;100506.47;;;18.50;28.97
74631;BME280;63138;55.082;38.804;2023-06-10T11:56:23;100511.59;;;18.26;29.42
74631;BME280;63138;55.082;38.804;2023-06-10T12:01:25;100529.31;;;17.77;28.94
74631;BME280;63138;55.082;38.804;2023-06-10T12:04:05;100520.56;;;17.20;28.93
74631;BME280;63138;55.082;38.804;2023-06-10T12:09:34;100531.13;;;17.30;29.99
74631;BME280;63138;55.082;38.804;2023-06-10T12:12:03;100531.91;;;17.85;29.63
74631;BME280;63138;55.082;38.804;2023-06-10T12:14:51;100531.69;;;18.13;28.92
74631;BME280;63138;55.082;38.804;2023-06-10T12:19:59;100522.19;;;17.08;29.85
74631;BME280;63138;55.082;38.804;2023-06-10T12:22:25;100521.94;;;16.96;30.66
74631;BME280;63138;55.082;38.804;2023-06-10T12:25:03;100518.91;;;17.39;30.22
74631;BME280;63138;55.082;38.804;2023-06-10T12:27:32;100509.88;;;17.58;29.73
74631;BME280;63138;55.082;38.804;2023-06-10T12:30:00;100529.78;;;17.87;29.47
74631;BME280;63138;55.082;38.804;2023-06-10T12:35:03;100522.44;;;17.19;29.66
74631;BME280;63138;55.082;38.804;2023-06-10T12:37:31;100528.53;;;17.08;29.81
74631;BME280;63138;55.082;38.804;2023-06-10T12:40:02;100521.09;;;16.95;30.05
74631;BME280;63138;55.082;38.804;2023-06-10T12:42:30;100517.56;;;16.67;30.75
74631;BME280;63138;55.082;38.804;2023-06-10T12:44:57;100517.19;;;16.76;30.98
74631;BME280;63138;55.082;38.804;2023-06-10T12:47:31;100523.34;;;17.40;29.75
74631;BME280;63138;55.082;38.804;2023-06-10T12:49:59;100534.72;;;17.30;29.61
74631;BME280;63138;55.082;38.804;2023-06-10T12:52:26;100517.03;;;17.39;29.69
74631;BME280;63138;55.082;38.804;2023-06-10T12:54:53;100506.84;;;17.27;29.80
74631;BME280;63138;55.082;38.804;2023-06-10T12:57:21;100510.13;;;16.95;30.50
74631;BME280;63138;55.082;38.804;2023-06-10T12:59:46;100507.00;;;17.05;30.20
74631;BME280;63138;55.082;38.804;2023-06-10T13:02:19;100517.22;;;17.31;30.24
74631;BME280;63138;55.082;38.804;2023-06-10T13:04:50;100520.09;;;17.10;30.54
74631;BME280;63138;55.082;38.804;2023-06-10T13:07:17;100522.31;;;16.86;30.86
74631;BME280;63138;55.082;38.804;2023-06-10T13:09:44;100521.06;;;16.89;30.08
74631;BME280;63138;55.082;38.804;2023-06-10T13:12:13;100520.66;;;16.92;29.27
74631;BME280;63138;55.082;38.804;2023-06-10T13:14:39;100523.31;;;17.27;29.34